sensor_id;sensor_type;location;lat;lon;timestamp;P1;durP1;ratioP1;P2;durP2;ratioP2
72891;SDS011;61032;50.782;6.818;2023-05-07T00:00:39;4.80;;;2.33;;
72891;SDS011;61032;50.782;6.818;2023-05-07T00:01:40;2.95;;;1.90;;
72891;SDS011;61032;50.782;6.818;2023-05-07T00:02:40;3.30;;;2.35;;
72891;SDS011;61032;50.782;6.818;2023-05-07T00:03:41;4.30;;;2.30;;
72891;SDS011;61032;50.782;6.818;2023-05-07T00:04:41;4.28;;;2.30;;
72891;SDS011;61032;50.782;6.818;2023-05-07T00:05:42;3.95;;;2.03;;
72891;SDS011;61032;50.782;6.818;2023-05-07T00:06:42;3.55;;;2.42;;
72891;SDS011;61032;50.782;6.818;2023-05-07T00:07:42;3.97;;;2.50;;
72891;SDS011;61032;50.782;6.818;2023-05-07T00:08:42;3.03;;;2.13;;
72891;SDS011;61032;50.782;6.818;2023-05-07T00:09:43;4.25;;;2.38;;
72891;SDS011;61032;50.782;6.818;2023-05-07T00:10:43;5.28;;;1.98;;
72891;SDS011;61032;50.782;6.818;2023-05-07T00:11:44;4.22;;;2.25;;
72891;SDS011;61032;50.782;6.818;2023-05-07T00:12:44;3.40;;;2.30;;
72891;SDS011;61032;50.782;6.818;2023-05-07T00:13:45;5.47;;;2.10;;
72891;SDS011;61032;50.782;6.818;2023-05-07T00:14:45;3.08;;;2.20;;
72891;SDS011;61032;50.782;6.818;2023-05-07T00:15:46;3.30;;;1.95;;
72891;SDS011;61032;50.782;6.818;2023-05-07T00:16:46;2.70;;;1.77;;
72891;SDS011;61032;50.782;6.818;2023-05-07T00:17:46;2.92;;;2.22;;
72891;SDS011;61032;50.782;6.818;2023-05-07T00:18:47;3.42;;;2.00;;
72891;SDS011;61032;50.782;6.818;2023-05-07T00:19:47;2.78;;;2.20;;
72891;SDS011;61032;50.782;6.818;2023-05-07T00:20:48;3.17;;;2.22;;
72891;SDS011;61032;50.782;6.818;2023-05-07T00:21:48;3.55;;;1.98;;
72891;SDS011;61032;50.782;6.818;2023-05-07T00:22:48;5.13;;;1.95;;
72891;SDS011;61032;50.782;6.818;2023-05-07T00:23:49;4.50;;;2.22;;
72891;SDS011;61032;50.782;6.818;2023-05-07T00:24:49;3.70;;;2.35;;
72891;SDS011;61032;50.782;6.818;2023-05-07T00:25:50;4.38;;;2.67;;
72891;SDS011;61032;50.782;6.818;2023-05-07T00:26:50;2.50;;;1.90;;
72891;SDS011;61032;50.782;6.818;2023-05-07T00:27:50;2.63;;;2.00;;
72891;SDS011;61032;50.782;6.818;2023-05-07T00:28:51;6.07;;;2.10;;
72891;SDS011;61032;50.782;6.818;2023-05-07T00:29:51;3.03;;;1.95;;
72891;SDS011;61032;50.782;6.818;2023-05-07T00:30:52;4.28;;;2.15;;
72891;SDS011;61032;50.782;6.818;2023-05-07T00:31:52;5.85;;;1.88;;
72891;SDS011;61032;50.782;6.818;2023-05-07T00:32:54;3.97;;;1.92;;
72891;SDS011;61032;50.782;6.818;2023-05-07T00:33:55;2.85;;;2.03;;
72891;SDS011;61032;50.782;6.818;2023-05-07T00:34:55;5.72;;;2.20;;
72891;SDS011;61032;50.782;6.818;2023-05-07T00:35:55;6.65;;;2.20;;
72891;SDS011;61032;50.782;6.818;2023-05-07T00:36:56;2.22;;;1.75;;
72891;SDS011;61032;50.782;6.818;2023-05-07T00:37:56;3.75;;;1.98;;
72891;SDS011;61032;50.782;6.818;2023-05-07T00:38:57;4.53;;;2.13;;
72891;SDS011;61032;50.782;6.818;2023-05-07T00:40:00;3.53;;;2.35;;
72891;SDS011;61032;50.782;6.818;2023-05-07T00:41:00;5.07;;;2.22;;
72891;SDS011;61032;50.782;6.818;2023-05-07T00:42:02;5.00;;;2.90;;
72891;SDS011;61032;50.782;6.818;2023-05-07T00:43:02;3.95;;;2.28;;
72891;SDS011;61032;50.782;6.818;2023-05-07T00:44:03;6.22;;;2.42;;
72891;SDS011;61032;50.782;6.818;2023-05-07T00:45:04;5.45;;;3.03;;
72891;SDS011;61032;50.782;6.818;2023-05-07T00:46:04;3.83;;;2.10;;
72891;SDS011;61032;50.782;6.818;2023-05-07T00:47:05;5.10;;;3.33;;
72891;SDS011;61032;50.782;6.818;2023-05-07T00:48:06;4.65;;;2.40;;
72891;SDS011;61032;50.782;6.818;2023-05-07T00:49:06;3.65;;;2.42;;
72891;SDS011;61032;50.782;6.818;2023-05-07T00:50:07;3.42;;;2.45;;
72891;SDS011;61032;50.782;6.818;2023-05-07T00:51:09;3.72;;;2.40;;
72891;SDS011;61032;50.782;6.818;2023-05-07T00:52:12;5.65;;;2.20;;
72891;SDS011;61032;50.782;6.818;2023-05-07T00:53:15;3.78;;;2.47;;
72891;SDS011;61032;50.782;6.818;2023-05-07T00:54:16;3.53;;;2.53;;
72891;SDS011;61032;50.782;6.818;2023-05-07T00:55:16;3.40;;;2.58;;
72891;SDS011;61032;50.782;6.818;2023-05-07T00:56:17;4.53;;;2.55;;
72891;SDS011;61032;50.782;6.818;2023-05-07T00:57:17;4.78;;;2.22;;
72891;SDS011;61032;50.782;6.818;2023-05-07T00:58:19;7.43;;;2.55;;
72891;SDS011;61032;50.782;6.818;2023-05-07T00:59:19;3.70;;;2.55;;
72891;SDS011;61032;50.782;6.818;2023-05-07T01:00:20;10.10;;;5.32;;
72891;SDS011;61032;50.782;6.818;2023-05-07T01:01:21;15.02;;;8.18;;
72891;SDS011;61032;50.782;6.818;2023-05-07T01:02:21;15.73;;;7.60;;
72891;SDS011;61032;50.782;6.818;2023-05-07T01:03:21;11.00;;;5.78;;
72891;SDS011;61032;50.782;6.818;2023-05-07T01:04:22;12.90;;;5.97;;
72891;SDS011;61032;50.782;6.818;2023-05-07T01:05:22;6.18;;;3.90;;
72891;SDS011;61032;50.782;6.818;2023-05-07T01:06:24;6.70;;;3.83;;
72891;SDS011;61032;50.782;6.818;2023-05-07T01:07:27;7.70;;;4.13;;
72891;SDS011;61032;50.782;6.818;2023-05-07T01:08:29;7.20;;;3.80;;
72891;SDS011;61032;50.782;6.818;2023-05-07T01:09:31;7.25;;;3.78;;
72891;SDS011;61032;50.782;6.818;2023-05-07T01:10:32;6.00;;;3.85;;
72891;SDS011;61032;50.782;6.818;2023-05-07T01:11:32;5.65;;;3.60;;
72891;SDS011;61032;50.782;6.818;2023-05-07T01:12:33;6.95;;;3.83;;
72891;SDS011;61032;50.782;6.818;2023-05-07T01:13:35;6.50;;;3.88;;
72891;SDS011;61032;50.782;6.818;2023-05-07T01:14:37;6.47;;;3.72;;
72891;SDS011;61032;50.782;6.818;2023-05-07T01:15:37;7.40;;;4.13;;
72891;SDS011;61032;50.782;6.818;2023-05-07T01:16:38;7.75;;;3.70;;
72891;SDS011;61032;50.782;6.818;2023-05-07T01:17:41;5.55;;;3.80;;
72891;SDS011;61032;50.782;6.818;2023-05-07T01:18:43;6.38;;;3.75;;
72891;SDS011;61032;50.782;6.818;2023-05-07T01:19:43;6.03;;;3.72;;
72891;SDS011;61032;50.782;6.818;2023-05-07T01:20:44;6.15;;;3.35;;
72891;SDS011;61032;50.782;6.818;2023-05-07T01:21:46;5.82;;;3.28;;
72891;SDS011;61032;50.782;6.818;2023-05-07T01:22:48;5.90;;;3.58;;
72891;SDS011;61032;50.782;6.818;2023-05-07T01:23:49;6.65;;;3.47;;
72891;SDS011;61032;50.782;6.818;2023-05-07T01:24:49;4.82;;;3.50;;
72891;SDS011;61032;50.782;6.818;2023-05-07T01:25:53;7.35;;;3.53;;
72891;SDS011;61032;50.782;6.818;2023-05-07T01:26:54;4.85;;;3.33;;
72891;SDS011;61032;50.782;6.818;2023-05-07T01:27:55;5.53;;;3.50;;
72891;SDS011;61032;50.782;6.818;2023-05-07T01:28:55;6.85;;;3.70;;
72891;SDS011;61032;50.782;6.818;2023-05-07T01:29:55;4.60;;;3.28;;
72891;SDS011;61032;50.782;6.818;2023-05-07T01:30:58;5.88;;;3.90;;
72891;SDS011;61032;50.782;6.818;2023-05-07T01:32:04;5.07;;;3.47;;
72891;SDS011;61032;50.782;6.818;2023-05-07T01:33:13;6.95;;;4.07;;
72891;SDS011;61032;50.782;6.818;2023-05-07T01:34:15;5.40;;;3.00;;
72891;SDS011;61032;50.782;6.818;2023-05-07T01:35:19;7.30;;;3.97;;
72891;SDS011;61032;50.782;6.818;2023-05-07T01:36:22;7.25;;;3.80;;
72891;SDS011;61032;50.782;6.818;2023-05-07T01:37:26;7.97;;;4.03;;
72891;SDS011;61032;50.782;6.818;2023-05-07T01:38:27;7.50;;;4.32;;
72891;SDS011;61032;50.782;6.818;2023-05-07T01:39:28;7.22;;;4.18;;
72891;SDS011;61032;50.782;6.818;2023-05-07T01:40:29;5.60;;;3.85;;
72891;SDS011;61032;50.782;6.818;2023-05-07T01:41:30;6.97;;;4.07;;
72891;SDS011;61032;50.782;6.818;2023-05-07T01:42:30;7.15;;;4.22;;
72891;SDS011;61032;50.782;6.818;2023-05-07T01:43:31;8.90;;;4.32;;
72891;SDS011;61032;50.782;6.818;2023-05-07T01:44:32;10.98;;;5.30;;
72891;SDS011;61032;50.782;6.818;2023-05-07T01:45:32;8.65;;;4.35;;
72891;SDS011;61032;50.782;6.818;2023-05-07T01:46:34;8.98;;;4.55;;
72891;SDS011;61032;50.782;6.818;2023-05-07T01:47:38;8.85;;;4.47;;
72891;SDS011;61032;50.782;6.818;2023-05-07T01:48:39;6.80;;;4.38;;
72891;SDS011;61032;50.782;6.818;2023-05-07T01:49:41;9.27;;;5.05;;
72891;SDS011;61032;50.782;6.818;2023-05-07T01:50:42;10.65;;;4.80;;
72891;SDS011;61032;50.782;6.818;2023-05-07T01:51:44;7.15;;;4.75;;
72891;SDS011;61032;50.782;6.818;2023-05-07T01:52:44;8.20;;;4.88;;
72891;SDS011;61032;50.782;6.818;2023-05-07T01:53:45;9.05;;;5.70;;
72891;SDS011;61032;50.782;6.818;2023-05-07T01:54:50;9.68;;;6.15;;
72891;SDS011;61032;50.782;6.818;2023-05-07T01:55:50;11.20;;;6.18;;
72891;SDS011;61032;50.782;6.818;2023-05-07T01:56:51;9.48;;;5.25;;
72891;SDS011;61032;50.782;6.818;2023-05-07T01:57:51;12.70;;;5.70;;
72891;SDS011;61032;50.782;6.818;2023-05-07T01:58:51;9.48;;;5.32;;
72891;SDS011;61032;50.782;6.818;2023-05-07T01:59:52;8.40;;;5.20;;
72891;SDS011;61032;50.782;6.818;2023-05-07T02:00:52;11.02;;;5.75;;
72891;SDS011;61032;50.782;6.818;2023-05-07T02:01:52;8.43;;;5.30;;
72891;SDS011;61032;50.782;6.818;2023-05-07T02:02:53;11.48;;;5.43;;
72891;SDS011;61032;50.782;6.818;2023-05-07T02:03:53;8.15;;;4.80;;
72891;SDS011;61032;50.782;6.818;2023-05-07T02:04:53;8.35;;;5.05;;
72891;SDS011;61032;50.782;6.818;2023-05-07T02:05:54;11.65;;;5.78;;
72891;SDS011;61032;50.782;6.818;2023-05-07T02:06:54;8.50;;;5.55;;
72891;SDS011;61032;50.782;6.818;2023-05-07T02:07:55;10.55;;;5.57;;
72891;SDS011;61032;50.782;6.818;2023-05-07T02:08:55;9.43;;;5.82;;
72891;SDS011;61032;50.782;6.818;2023-05-07T02:09:56;10.38;;;5.32;;
72891;SDS011;61032;50.782;6.818;2023-05-07T02:10:56;9.50;;;5.88;;
72891;SDS011;61032;50.782;6.818;2023-05-07T02:11:56;8.93;;;5.68;;
72891;SDS011;61032;50.782;6.818;2023-05-07T02:12:57;10.13;;;5.72;;
72891;SDS011;61032;50.782;6.818;2023-05-07T02:13:57;11.77;;;5.70;;
72891;SDS011;61032;50.782;6.818;2023-05-07T02:14:57;10.75;;;6.00;;
72891;SDS011;61032;50.782;6.818;2023-05-07T02:15:58;9.85;;;6.03;;
72891;SDS011;61032;50.782;6.818;2023-05-07T02:16:58;13.32;;;6.82;;
72891;SDS011;61032;50.782;6.818;2023-05-07T02:18:03;12.02;;;7.10;;
72891;SDS011;61032;50.782;6.818;2023-05-07T02:19:04;9.93;;;5.80;;
72891;SDS011;61032;50.782;6.818;2023-05-07T02:20:05;12.05;;;6.82;;
72891;SDS011;61032;50.782;6.818;2023-05-07T02:21:07;9.73;;;5.45;;
72891;SDS011;61032;50.782;6.818;2023-05-07T02:22:07;11.05;;;6.50;;
72891;SDS011;61032;50.782;6.818;2023-05-07T02:23:08;11.70;;;6.90;;
72891;SDS011;61032;50.782;6.818;2023-05-07T02:24:08;11.40;;;6.43;;
72891;SDS011;61032;50.782;6.818;2023-05-07T02:25:09;13.20;;;6.00;;
72891;SDS011;61032;50.782;6.818;2023-05-07T02:26:10;11.35;;;6.80;;
72891;SDS011;61032;50.782;6.818;2023-05-07T02:27:10;10.63;;;6.22;;
72891;SDS011;61032;50.782;6.818;2023-05-07T02:28:11;9.70;;;5.90;;
72891;SDS011;61032;50.782;6.818;2023-05-07T02:29:11;9.38;;;6.25;;
72891;SDS011;61032;50.782;6.818;2023-05-07T02:30:12;10.00;;;5.85;;
72891;SDS011;61032;50.782;6.818;2023-05-07T02:31:13;10.45;;;5.45;;
72891;SDS011;61032;50.782;6.818;2023-05-07T02:32:13;9.77;;;5.68;;
72891;SDS011;61032;50.782;6.818;2023-05-07T02:33:13;10.10;;;5.43;;
72891;SDS011;61032;50.782;6.818;2023-05-07T02:34:14;11.05;;;6.28;;
72891;SDS011;61032;50.782;6.818;2023-05-07T02:35:14;8.55;;;5.38;;
72891;SDS011;61032;50.782;6.818;2023-05-07T02:36:14;9.73;;;6.25;;
72891;SDS011;61032;50.782;6.818;2023-05-07T02:37:15;10.25;;;5.75;;
72891;SDS011;61032;50.782;6.818;2023-05-07T02:38:15;10.70;;;6.57;;
72891;SDS011;61032;50.782;6.818;2023-05-07T02:39:16;11.20;;;6.57;;
72891;SDS011;61032;50.782;6.818;2023-05-07T02:40:16;10.07;;;6.60;;
72891;SDS011;61032;50.782;6.818;2023-05-07T02:41:17;12.27;;;5.50;;
72891;SDS011;61032;50.782;6.818;2023-05-07T02:42:17;9.77;;;6.47;;
72891;SDS011;61032;50.782;6.818;2023-05-07T02:43:17;11.57;;;5.88;;
72891;SDS011;61032;50.782;6.818;2023-05-07T02:44:18;10.63;;;6.35;;
72891;SDS011;61032;50.782;6.818;2023-05-07T02:45:18;8.00;;;4.75;;
72891;SDS011;61032;50.782;6.818;2023-05-07T02:46:18;10.40;;;6.65;;
72891;SDS011;61032;50.782;6.818;2023-05-07T02:47:19;9.32;;;6.03;;
72891;SDS011;61032;50.782;6.818;2023-05-07T02:48:19;11.05;;;6.20;;
72891;SDS011;61032;50.782;6.818;2023-05-07T02:49:20;11.75;;;6.05;;
72891;SDS011;61032;50.782;6.818;2023-05-07T02:50:20;12.98;;;6.85;;
72891;SDS011;61032;50.782;6.818;2023-05-07T02:51:21;11.05;;;6.65;;
72891;SDS011;61032;50.782;6.818;2023-05-07T02:52:22;10.30;;;5.95;;
72891;SDS011;61032;50.782;6.818;2023-05-07T02:53:23;10.43;;;6.30;;
72891;SDS011;61032;50.782;6.818;2023-05-07T02:54:25;9.50;;;5.50;;
72891;SDS011;61032;50.782;6.818;2023-05-07T02:55:26;13.60;;;6.40;;
72891;SDS011;61032;50.782;6.818;2023-05-07T02:56:26;10.30;;;5.93;;
72891;SDS011;61032;50.782;6.818;2023-05-07T02:57:27;9.45;;;6.10;;
72891;SDS011;61032;50.782;6.818;2023-05-07T02:58:27;11.48;;;6.57;;
72891;SDS011;61032;50.782;6.818;2023-05-07T02:59:27;9.68;;;6.03;;
72891;SDS011;61032;50.782;6.818;2023-05-07T03:00:28;10.73;;;6.32;;
72891;SDS011;61032;50.782;6.818;2023-05-07T03:01:28;10.63;;;5.93;;
72891;SDS011;61032;50.782;6.818;2023-05-07T03:02:28;12.13;;;7.18;;
72891;SDS011;61032;50.782;6.818;2023-05-07T03:03:29;8.30;;;5.05;;
72891;SDS011;61032;50.782;6.818;2023-05-07T03:04:29;10.15;;;6.07;;
72891;SDS011;61032;50.782;6.818;2023-05-07T03:05:29;9.52;;;5.72;;
72891;SDS011;61032;50.782;6.818;2023-05-07T03:06:30;9.20;;;5.20;;
72891;SDS011;61032;50.782;6.818;2023-05-07T03:07:30;11.23;;;5.47;;
72891;SDS011;61032;50.782;6.818;2023-05-07T03:08:30;10.10;;;4.75;;
72891;SDS011;61032;50.782;6.818;2023-05-07T03:09:31;8.15;;;4.85;;
72891;SDS011;61032;50.782;6.818;2023-05-07T03:10:31;7.13;;;4.47;;
72891;SDS011;61032;50.782;6.818;2023-05-07T03:11:31;7.07;;;4.45;;
72891;SDS011;61032;50.782;6.818;2023-05-07T03:12:31;7.40;;;4.82;;
72891;SDS011;61032;50.782;6.818;2023-05-07T03:13:32;11.38;;;5.18;;
72891;SDS011;61032;50.782;6.818;2023-05-07T03:14:32;9.65;;;5.22;;
72891;SDS011;61032;50.782;6.818;2023-05-07T03:15:33;7.35;;;5.20;;
72891;SDS011;61032;50.782;6.818;2023-05-07T03:16:33;7.50;;;4.97;;
72891;SDS011;61032;50.782;6.818;2023-05-07T03:17:33;10.07;;;4.80;;
72891;SDS011;61032;50.782;6.818;2023-05-07T03:18:34;7.95;;;4.80;;
72891;SDS011;61032;50.782;6.818;2023-05-07T03:19:34;7.50;;;4.57;;
72891;SDS011;61032;50.782;6.818;2023-05-07T03:20:34;7.63;;;4.63;;
72891;SDS011;61032;50.782;6.818;2023-05-07T03:21:36;7.00;;;4.72;;
72891;SDS011;61032;50.782;6.818;2023-05-07T03:22:36;8.73;;;4.60;;
72891;SDS011;61032;50.782;6.818;2023-05-07T03:23:36;8.63;;;5.10;;
72891;SDS011;61032;50.782;6.818;2023-05-07T03:24:37;8.60;;;5.10;;
72891;SDS011;61032;50.782;6.818;2023-05-07T03:25:37;9.35;;;5.30;;
72891;SDS011;61032;50.782;6.818;2023-05-07T03:26:37;9.15;;;5.63;;
72891;SDS011;61032;50.782;6.818;2023-05-07T03:27:38;9.55;;;5.13;;
72891;SDS011;61032;50.782;6.818;2023-05-07T03:28:38;9.02;;;5.30;;
72891;SDS011;61032;50.782;6.818;2023-05-07T03:29:38;9.68;;;5.00;;
72891;SDS011;61032;50.782;6.818;2023-05-07T03:30:39;7.43;;;4.82;;
72891;SDS011;61032;50.782;6.818;2023-05-07T03:31:39;9.82;;;5.15;;
72891;SDS011;61032;50.782;6.818;2023-05-07T03:32:39;9.20;;;5.65;;
72891;SDS011;61032;50.782;6.818;2023-05-07T03:33:56;9.20;;;5.70;;
72891;SDS011;61032;50.782;6.818;2023-05-07T03:34:57;9.63;;;5.35;;
72891;SDS011;61032;50.782;6.818;2023-05-07T03:35:57;9.05;;;5.93;;
72891;SDS011;61032;50.782;6.818;2023-05-07T03:36:57;7.97;;;5.13;;
72891;SDS011;61032;50.782;6.818;2023-05-07T03:37:58;8.18;;;5.00;;
72891;SDS011;61032;50.782;6.818;2023-05-07T03:38:58;7.60;;;5.25;;
72891;SDS011;61032;50.782;6.818;2023-05-07T03:39:58;10.15;;;5.43;;
72891;SDS011;61032;50.782;6.818;2023-05-07T03:40:59;7.57;;;4.90;;
72891;SDS011;61032;50.782;6.818;2023-05-07T03:41:59;7.60;;;4.32;;
72891;SDS011;61032;50.782;6.818;2023-05-07T03:43:00;9.50;;;5.03;;
72891;SDS011;61032;50.782;6.818;2023-05-07T03:44:01;9.13;;;5.47;;
72891;SDS011;61032;50.782;6.818;2023-05-07T03:45:01;8.82;;;5.40;;
72891;SDS011;61032;50.782;6.818;2023-05-07T03:46:01;8.90;;;5.32;;
72891;SDS011;61032;50.782;6.818;2023-05-07T03:47:02;6.85;;;4.55;;
72891;SDS011;61032;50.782;6.818;2023-05-07T03:48:03;9.35;;;4.90;;
72891;SDS011;61032;50.782;6.818;2023-05-07T03:49:03;8.68;;;4.80;;
72891;SDS011;61032;50.782;6.818;2023-05-07T03:50:04;7.10;;;4.65;;
72891;SDS011;61032;50.782;6.818;2023-05-07T03:51:04;7.30;;;4.18;;
72891;SDS011;61032;50.782;6.818;2023-05-07T03:52:05;6.47;;;4.53;;
72891;SDS011;61032;50.782;6.818;2023-05-07T03:53:06;6.80;;;4.35;;
72891;SDS011;61032;50.782;6.818;2023-05-07T03:54:06;6.93;;;4.10;;
72891;SDS011;61032;50.782;6.818;2023-05-07T03:55:06;6.93;;;4.00;;
72891;SDS011;61032;50.782;6.818;2023-05-07T03:56:07;6.63;;;3.60;;
72891;SDS011;61032;50.782;6.818;2023-05-07T03:57:07;6.35;;;3.80;;
72891;SDS011;61032;50.782;6.818;2023-05-07T03:58:08;7.47;;;4.13;;
72891;SDS011;61032;50.782;6.818;2023-05-07T03:59:08;6.88;;;3.83;;
72891;SDS011;61032;50.782;6.818;2023-05-07T04:00:08;5.75;;;3.75;;
72891;SDS011;61032;50.782;6.818;2023-05-07T04:01:09;6.32;;;3.50;;
72891;SDS011;61032;50.782;6.818;2023-05-07T04:02:10;6.55;;;4.00;;
72891;SDS011;61032;50.782;6.818;2023-05-07T04:03:10;6.10;;;3.53;;
72891;SDS011;61032;50.782;6.818;2023-05-07T04:04:10;5.82;;;3.67;;
72891;SDS011;61032;50.782;6.818;2023-05-07T04:05:10;5.65;;;3.60;;
72891;SDS011;61032;50.782;6.818;2023-05-07T04:06:13;5.97;;;3.72;;
72891;SDS011;61032;50.782;6.818;2023-05-07T04:07:15;7.55;;;4.00;;
72891;SDS011;61032;50.782;6.818;2023-05-07T04:08:16;5.97;;;3.25;;
72891;SDS011;61032;50.782;6.818;2023-05-07T04:09:16;5.93;;;3.58;;
72891;SDS011;61032;50.782;6.818;2023-05-07T04:10:16;6.00;;;3.47;;
72891;SDS011;61032;50.782;6.818;2023-05-07T04:11:16;6.47;;;3.80;;
72891;SDS011;61032;50.782;6.818;2023-05-07T04:12:17;8.50;;;3.78;;
72891;SDS011;61032;50.782;6.818;2023-05-07T04:13:17;8.48;;;3.97;;
72891;SDS011;61032;50.782;6.818;2023-05-07T04:14:17;5.75;;;3.65;;
72891;SDS011;61032;50.782;6.818;2023-05-07T04:15:18;4.82;;;3.53;;
72891;SDS011;61032;50.782;6.818;2023-05-07T04:16:18;5.13;;;3.38;;
72891;SDS011;61032;50.782;6.818;2023-05-07T04:17:18;4.32;;;3.25;;
72891;SDS011;61032;50.782;6.818;2023-05-07T04:18:18;6.45;;;3.70;;
72891;SDS011;61032;50.782;6.818;2023-05-07T04:19:19;5.57;;;3.60;;
72891;SDS011;61032;50.782;6.818;2023-05-07T04:20:20;10.40;;;3.80;;
72891;SDS011;61032;50.782;6.818;2023-05-07T04:21:20;5.32;;;3.20;;
72891;SDS011;61032;50.782;6.818;2023-05-07T04:22:20;6.00;;;3.03;;
72891;SDS011;61032;50.782;6.818;2023-05-07T04:23:21;5.55;;;3.08;;
72891;SDS011;61032;50.782;6.818;2023-05-07T04:24:21;4.53;;;3.15;;
72891;SDS011;61032;50.782;6.818;2023-05-07T04:25:21;5.75;;;2.75;;
72891;SDS011;61032;50.782;6.818;2023-05-07T04:26:22;4.70;;;2.65;;
72891;SDS011;61032;50.782;6.818;2023-05-07T04:27:23;4.00;;;2.20;;
72891;SDS011;61032;50.782;6.818;2023-05-07T04:28:23;6.28;;;2.72;;
72891;SDS011;61032;50.782;6.818;2023-05-07T04:29:24;4.05;;;2.53;;
72891;SDS011;61032;50.782;6.818;2023-05-07T04:30:24;3.55;;;2.10;;
72891;SDS011;61032;50.782;6.818;2023-05-07T04:31:24;5.38;;;2.42;;
72891;SDS011;61032;50.782;6.818;2023-05-07T04:32:25;4.70;;;2.38;;
72891;SDS011;61032;50.782;6.818;2023-05-07T04:33:26;4.07;;;3.03;;
72891;SDS011;61032;50.782;6.818;2023-05-07T04:34:26;3.03;;;2.30;;
72891;SDS011;61032;50.782;6.818;2023-05-07T04:35:27;5.57;;;2.45;;
72891;SDS011;61032;50.782;6.818;2023-05-07T04:36:27;2.97;;;2.03;;
72891;SDS011;61032;50.782;6.818;2023-05-07T04:37:27;3.13;;;2.22;;
72891;SDS011;61032;50.782;6.818;2023-05-07T04:38:28;4.47;;;2.72;;
72891;SDS011;61032;50.782;6.818;2023-05-07T04:40:30;3.30;;;1.95;;
72891;SDS011;61032;50.782;6.818;2023-05-07T04:41:30;4.90;;;1.90;;
72891;SDS011;61032;50.782;6.818;2023-05-07T04:42:31;3.78;;;2.47;;
72891;SDS011;61032;50.782;6.818;2023-05-07T04:43:31;4.20;;;2.33;;
72891;SDS011;61032;50.782;6.818;2023-05-07T04:44:32;2.85;;;2.05;;
72891;SDS011;61032;50.782;6.818;2023-05-07T04:45:32;3.65;;;1.85;;
72891;SDS011;61032;50.782;6.818;2023-05-07T04:46:32;3.85;;;2.45;;
72891;SDS011;61032;50.782;6.818;2023-05-07T04:47:33;3.20;;;2.10;;
72891;SDS011;61032;50.782;6.818;2023-05-07T04:48:33;4.15;;;2.35;;
72891;SDS011;61032;50.782;6.818;2023-05-07T04:49:33;4.40;;;2.30;;
72891;SDS011;61032;50.782;6.818;2023-05-07T04:50:33;2.50;;;2.03;;
72891;SDS011;61032;50.782;6.818;2023-05-07T04:51:34;2.85;;;2.03;;
72891;SDS011;61032;50.782;6.818;2023-05-07T04:52:34;3.85;;;1.90;;
72891;SDS011;61032;50.782;6.818;2023-05-07T04:53:35;3.28;;;2.50;;
72891;SDS011;61032;50.782;6.818;2023-05-07T04:54:35;2.97;;;2.10;;
72891;SDS011;61032;50.782;6.818;2023-05-07T04:55:35;3.50;;;2.17;;
72891;SDS011;61032;50.782;6.818;2023-05-07T04:56:36;4.95;;;1.70;;
72891;SDS011;61032;50.782;6.818;2023-05-07T04:57:36;4.13;;;2.05;;
72891;SDS011;61032;50.782;6.818;2023-05-07T04:58:39;2.95;;;1.70;;
72891;SDS011;61032;50.782;6.818;2023-05-07T04:59:39;4.05;;;3.30;;
72891;SDS011;61032;50.782;6.818;2023-05-07T05:00:40;3.95;;;2.30;;
72891;SDS011;61032;50.782;6.818;2023-05-07T05:01:40;2.22;;;1.90;;
72891;SDS011;61032;50.782;6.818;2023-05-07T05:02:40;2.88;;;1.88;;
72891;SDS011;61032;50.782;6.818;2023-05-07T05:03:41;3.25;;;2.15;;
72891;SDS011;61032;50.782;6.818;2023-05-07T05:04:41;2.72;;;1.85;;
72891;SDS011;61032;50.782;6.818;2023-05-07T05:05:41;3.42;;;2.00;;
72891;SDS011;61032;50.782;6.818;2023-05-07T05:06:42;3.55;;;2.15;;
72891;SDS011;61032;50.782;6.818;2023-05-07T05:07:42;5.13;;;2.35;;
72891;SDS011;61032;50.782;6.818;2023-05-07T05:08:42;2.75;;;1.73;;
72891;SDS011;61032;50.782;6.818;2023-05-07T05:09:43;3.13;;;2.03;;
72891;SDS011;61032;50.782;6.818;2023-05-07T05:10:43;3.10;;;2.00;;
72891;SDS011;61032;50.782;6.818;2023-05-07T05:11:43;3.58;;;2.10;;
72891;SDS011;61032;50.782;6.818;2023-05-07T05:12:44;3.00;;;1.90;;
72891;SDS011;61032;50.782;6.818;2023-05-07T05:13:44;2.95;;;1.90;;
72891;SDS011;61032;50.782;6.818;2023-05-07T05:14:44;3.50;;;2.10;;
72891;SDS011;61032;50.782;6.818;2023-05-07T05:15:45;3.45;;;2.03;;
72891;SDS011;61032;50.782;6.818;2023-05-07T05:16:45;2.60;;;1.80;;
72891;SDS011;61032;50.782;6.818;2023-05-07T05:17:45;3.10;;;1.95;;
72891;SDS011;61032;50.782;6.818;2023-05-07T05:18:46;2.03;;;1.55;;
72891;SDS011;61032;50.782;6.818;2023-05-07T05:19:46;3.92;;;2.08;;
72891;SDS011;61032;50.782;6.818;2023-05-07T05:20:46;3.97;;;1.65;;
72891;SDS011;61032;50.782;6.818;2023-05-07T05:21:47;2.50;;;1.70;;
72891;SDS011;61032;50.782;6.818;2023-05-07T05:22:47;4.20;;;1.70;;
72891;SDS011;61032;50.782;6.818;2023-05-07T05:23:47;2.08;;;1.58;;
72891;SDS011;61032;50.782;6.818;2023-05-07T05:24:48;6.30;;;1.88;;
72891;SDS011;61032;50.782;6.818;2023-05-07T05:25:48;2.10;;;1.63;;
72891;SDS011;61032;50.782;6.818;2023-05-07T05:26:48;2.30;;;1.65;;
72891;SDS011;61032;50.782;6.818;2023-05-07T05:27:49;2.33;;;1.70;;
72891;SDS011;61032;50.782;6.818;2023-05-07T05:28:49;2.13;;;1.65;;
72891;SDS011;61032;50.782;6.818;2023-05-07T05:29:49;2.63;;;1.40;;
72891;SDS011;61032;50.782;6.818;2023-05-07T05:30:50;1.88;;;1.38;;
72891;SDS011;61032;50.782;6.818;2023-05-07T05:31:50;4.35;;;1.48;;
72891;SDS011;61032;50.782;6.818;2023-05-07T05:32:50;3.60;;;2.05;;
72891;SDS011;61032;50.782;6.818;2023-05-07T05:33:51;2.38;;;1.48;;
72891;SDS011;61032;50.782;6.818;2023-05-07T05:34:51;2.40;;;1.67;;
72891;SDS011;61032;50.782;6.818;2023-05-07T05:35:53;2.00;;;1.48;;
72891;SDS011;61032;50.782;6.818;2023-05-07T05:37:54;3.55;;;1.80;;
72891;SDS011;61032;50.782;6.818;2023-05-07T05:38:55;5.00;;;1.70;;
72891;SDS011;61032;50.782;6.818;2023-05-07T05:39:55;1.95;;;1.20;;
72891;SDS011;61032;50.782;6.818;2023-05-07T05:40:55;3.80;;;1.58;;
72891;SDS011;61032;50.782;6.818;2023-05-07T05:41:56;1.75;;;1.40;;
72891;SDS011;61032;50.782;6.818;2023-05-07T05:42:56;2.50;;;1.30;;
72891;SDS011;61032;50.782;6.818;2023-05-07T05:43:56;2.10;;;1.40;;
72891;SDS011;61032;50.782;6.818;2023-05-07T05:44:56;3.00;;;1.30;;
72891;SDS011;61032;50.782;6.818;2023-05-07T05:45:57;2.67;;;1.75;;
72891;SDS011;61032;50.782;6.818;2023-05-07T05:46:57;1.70;;;1.35;;
72891;SDS011;61032;50.782;6.818;2023-05-07T05:47:59;2.35;;;1.48;;
72891;SDS011;61032;50.782;6.818;2023-05-07T05:48:59;1.92;;;1.27;;
72891;SDS011;61032;50.782;6.818;2023-05-07T05:50:00;1.83;;;1.30;;
72891;SDS011;61032;50.782;6.818;2023-05-07T05:51:00;2.20;;;1.40;;
72891;SDS011;61032;50.782;6.818;2023-05-07T05:52:00;2.78;;;1.92;;
72891;SDS011;61032;50.782;6.818;2023-05-07T05:53:01;4.32;;;1.60;;
72891;SDS011;61032;50.782;6.818;2023-05-07T05:54:01;2.95;;;1.30;;
72891;SDS011;61032;50.782;6.818;2023-05-07T05:55:01;3.20;;;1.50;;
72891;SDS011;61032;50.782;6.818;2023-05-07T05:56:02;2.40;;;1.30;;
72891;SDS011;61032;50.782;6.818;2023-05-07T05:57:02;2.33;;;1.45;;
72891;SDS011;61032;50.782;6.818;2023-05-07T05:59:04;2.95;;;1.45;;
72891;SDS011;61032;50.782;6.818;2023-05-07T06:00:05;4.10;;;1.50;;
72891;SDS011;61032;50.782;6.818;2023-05-07T06:01:06;2.90;;;1.88;;
72891;SDS011;61032;50.782;6.818;2023-05-07T06:02:07;3.67;;;1.85;;
72891;SDS011;61032;50.782;6.818;2023-05-07T06:03:07;3.75;;;2.42;;
72891;SDS011;61032;50.782;6.818;2023-05-07T06:04:07;2.55;;;2.08;;
72891;SDS011;61032;50.782;6.818;2023-05-07T06:05:08;3.17;;;1.98;;
72891;SDS011;61032;50.782;6.818;2023-05-07T06:06:09;1.90;;;1.50;;
72891;SDS011;61032;50.782;6.818;2023-05-07T06:07:09;2.80;;;1.70;;
72891;SDS011;61032;50.782;6.818;2023-05-07T06:08:09;4.32;;;2.13;;